Time;durP1;ratioP1;P1;durP2;ratioP2;P2;SDS_P1;SDS_P2;PMS_P1;PMS_P2;Temp;Humidity;BMP_temperature;BMP_pressure;BME280_temperature;BME280_humidity;BME280_pressure;Samples;Min_cycle;Max_cycle;Signal;HPM_P1;HPM_P2
2022/10/15 00:00:34;;;;;;;2.28;0.95;;;;;;;;;;5014436;28;20180;-60
2022/10/15 00:02:59;;;;;;;2.63;1.00;;;;;;;;;;5016226;28;20121;-59
2022/10/15 00:05:25;;;;;;;2.83;0.88;;;;;;;;;;5015726;28;20085;-59
2022/10/15 00:07:50;;;;;;;2.05;1.00;;;;;;;;;;5007349;28;20044;-59
2022/10/15 00:10:16;;;;;;;2.38;1.10;;;;;;;;;;5036037;28;20111;-60
2022/10/15 00:12:41;;;;;;;2.50;1.08;;;;;;;;;;5012113;28;20029;-59
2022/10/15 00:15:07;;;;;;;5.07;1.30;;;;;;;;;;5015552;28;20084;-62
2022/10/15 00:17:34;;;;;;;1.90;0.93;;;;;;;;;;5015567;28;20493;-61
2022/10/15 00:19:59;;;;;;;2.33;0.90;;;;;;;;;;5015317;28;20508;-58
2022/10/15 00:22:25;;;;;;;2.20;0.90;;;;;;;;;;5002253;28;20109;-59
2022/10/15 00:24:50;;;;;;;2.38;1.05;;;;;;;;;;5015382;28;20038;-59
2022/10/15 00:27:16;;;;;;;1.83;1.00;;;;;;;;;;5015862;28;20127;-59
2022/10/15 00:29:41;;;;;;;2.30;1.10;;;;;;;;;;5012210;28;20893;-59
2022/10/15 00:32:07;;;;;;;3.05;1.10;;;;;;;;;;5015174;28;20046;-59
2022/10/15 00:34:32;;;;;;;2.85;1.50;;;;;;;;;;5015509;28;20044;-58
2022/10/15 00:36:58;;;;;;;2.20;0.93;;;;;;;;;;5002310;28;20052;-59
2022/10/15 00:39:23;;;;;;;1.83;0.90;;;;;;;;;;5009230;28;20088;-59
2022/10/15 00:41:48;;;;;;;2.38;0.98;;;;;;;;;;5010744;28;20034;-59
2022/10/15 00:44:20;;;;;;;2.17;0.93;;;;;;;;;;5004185;28;20036;-59
2022/10/15 00:46:47;;;;;;;2.20;0.90;;;;;;;;;;5015071;28;20033;-58
2022/10/15 00:49:13;;;;;;;2.20;0.90;;;;;;;;;;5015415;28;20041;-59
2022/10/15 00:51:44;;;;;;;1.60;0.85;;;;;;;;;;5014961;28;20042;-59
2022/10/15 00:54:10;;;;;;;1.98;1.00;;;;;;;;;;5011804;28;20088;-59
2022/10/15 00:56:36;;;;;;;1.85;0.93;;;;;;;;;;5013738;28;20029;-59
2022/10/15 00:59:04;;;;;;;2.42;0.95;;;;;;;;;;5010347;28;20038;-58
2022/10/15 01:01:29;;;;;;;1.90;0.90;;;;;;;;;;5022720;28;20065;-59
2022/10/15 01:03:55;;;;;;;2.45;1.00;;;;;;;;;;5007152;28;20359;-59
2022/10/15 01:06:20;;;;;;;2.90;1.00;;;;;;;;;;5014918;28;20107;-62
2022/10/15 01:08:46;;;;;;;2.15;1.05;;;;;;;;;;5011510;28;20034;-59
2022/10/15 01:11:26;;;;;;;2.22;0.95;;;;;;;;;;5012927;28;20038;-59
2022/10/15 01:14:00;;;;;;;1.55;0.88;;;;;;;;;;5014646;28;20044;-59
2022/10/15 01:16:26;;;;;;;1.73;0.90;;;;;;;;;;5007918;28;20386;-59
2022/10/15 01:19:05;;;;;;;1.98;1.00;;;;;;;;;;5014507;28;20044;-58
2022/10/15 01:21:34;;;;;;;1.77;0.80;;;;;;;;;;5013633;28;20033;-58
2022/10/15 01:24:21;;;;;;;1.65;0.93;;;;;;;;;;5012949;28;20049;-59
2022/10/15 01:27:15;;;;;;;2.33;0.80;;;;;;;;;;5013698;28;20493;-58
2022/10/15 01:29:55;;;;;;;1.42;0.73;;;;;;;;;;5000775;28;20046;-61
2022/10/15 01:32:27;;;;;;;1.88;0.80;;;;;;;;;;5013445;28;20034;-59
2022/10/15 01:34:56;;;;;;;1.15;0.75;;;;;;;;;;5008958;28;20062;-59
2022/10/15 01:37:45;;;;;;;2.28;0.80;;;;;;;;;;5013448;28;20038;-62
2022/10/15 01:40:20;;;;;;;2.17;1.00;;;;;;;;;;5010284;28;20038;-59
2022/10/15 01:42:50;;;;;;;2.83;1.55;;;;;;;;;;5029548;28;20041;-60
2022/10/15 01:45:20;;;;;;;1.63;1.00;;;;;;;;;;5028734;28;20045;-59
2022/10/15 01:47:48;;;;;;;2.35;1.00;;;;;;;;;;5007497;28;20033;-59
2022/10/15 01:50:15;;;;;;;2.33;1.02;;;;;;;;;;5014017;28;20037;-58
2022/10/15 01:52:42;;;;;;;1.98;0.88;;;;;;;;;;5012742;28;20045;-59
2022/10/15 01:55:10;;;;;;;1.83;0.90;;;;;;;;;;5014120;28;20068;-60
2022/10/15 01:57:38;;;;;;;1.02;0.70;;;;;;;;;;5012511;28;20046;-59
2022/10/15 02:00:04;;;;;;;2.05;0.90;;;;;;;;;;5005352;28;20037;-58
2022/10/15 02:02:29;;;;;;;1.88;0.88;;;;;;;;;;5010093;28;20034;-59
2022/10/15 02:04:54;;;;;;;2.60;0.90;;;;;;;;;;5006787;28;20088;-59
2022/10/15 02:07:52;;;;;;;1.98;0.90;;;;;;;;;;5013958;28;20033;-59
2022/10/15 02:10:27;;;;;;;1.67;0.82;;;;;;;;;;5005556;28;20046;-59
2022/10/15 02:13:02;;;;;;;1.85;0.90;;;;;;;;;;4992711;28;20046;-59
2022/10/15 02:16:09;;;;;;;2.35;0.90;;;;;;;;;;5006699;28;20065;-59
2022/10/15 02:19:10;;;;;;;2.10;0.90;;;;;;;;;;5007955;28;20037;-59
2022/10/15 02:21:48;;;;;;;1.83;0.88;;;;;;;;;;5008021;28;20045;-59
2022/10/15 02:24:22;;;;;;;1.77;0.85;;;;;;;;;;5025655;28;20099;-59
2022/10/15 02:26:48;;;;;;;1.73;0.73;;;;;;;;;;5012453;28;20117;-61
2022/10/15 02:29:19;;;;;;;1.98;1.00;;;;;;;;;;5011766;28;20125;-59
2022/10/15 02:31:46;;;;;;;1.27;0.70;;;;;;;;;;5012162;28;20496;-58
2022/10/15 02:34:16;;;;;;;1.35;0.70;;;;;;;;;;5012594;28;20072;-60
2022/10/15 02:36:41;;;;;;;2.40;1.00;;;;;;;;;;5011917;28;20038;-59
2022/10/15 02:39:10;;;;;;;1.70;0.80;;;;;;;;;;5005353;28;20038;-59
2022/10/15 02:41:37;;;;;;;1.30;0.80;;;;;;;;;;5011949;28;20081;-59
2022/10/15 02:44:03;;;;;;;2.13;0.90;;;;;;;;;;5013114;28;20034;-59
2022/10/15 02:46:28;;;;;;;1.58;0.77;;;;;;;;;;5013276;28;20033;-58
2022/10/15 02:48:54;;;;;;;1.48;0.70;;;;;;;;;;5013382;28;20089;-59
2022/10/15 02:51:19;;;;;;;2.83;0.88;;;;;;;;;;5008715;28;20045;-58
2022/10/15 02:53:44;;;;;;;2.05;0.90;;;;;;;;;;5002230;28;20084;-59
2022/10/15 02:56:10;;;;;;;2.38;0.70;;;;;;;;;;5012906;28;20044;-60
2022/10/15 02:58:35;;;;;;;8.38;1.05;;;;;;;;;;5002990;28;20045;-59
2022/10/15 03:01:01;;;;;;;1.80;0.80;;;;;;;;;;5005664;28;20553;-59
2022/10/15 03:03:26;;;;;;;3.85;1.05;;;;;;;;;;4997393;28;20045;-59
2022/10/15 03:05:51;;;;;;;2.28;1.02;;;;;;;;;;5000238;28;20080;-60
2022/10/15 03:08:17;;;;;;;3.20;0.80;;;;;;;;;;5010835;28;20034;-58
2022/10/15 03:10:44;;;;;;;1.77;0.80;;;;;;;;;;5012988;28;20092;-59
2022/10/15 03:13:09;;;;;;;1.55;0.68;;;;;;;;;;5004620;28;20042;-59
2022/10/15 03:15:35;;;;;;;1.90;0.93;;;;;;;;;;5011594;28;20029;-59
2022/10/15 03:18:01;;;;;;;1.48;0.77;;;;;;;;;;5005313;28;20045;-59
2022/10/15 03:20:26;;;;;;;2.10;0.80;;;;;;;;;;5001483;28;20100;-60
2022/10/15 03:22:51;;;;;;;1.73;0.70;;;;;;;;;;5003995;28;20113;-59
2022/10/15 03:25:17;;;;;;;1.60;0.80;;;;;;;;;;5013104;28;20508;-59
2022/10/15 03:27:42;;;;;;;1.40;0.70;;;;;;;;;;5012571;28;20096;-59
2022/10/15 03:30:08;;;;;;;1.65;0.90;;;;;;;;;;5007112;28;20045;-60
2022/10/15 03:32:33;;;;;;;1.20;0.70;;;;;;;;;;5013081;28;20129;-59
2022/10/15 03:34:59;;;;;;;1.75;0.75;;;;;;;;;;5013040;28;20038;-59
2022/10/15 03:37:24;;;;;;;1.23;0.70;;;;;;;;;;5007704;28;20026;-59
2022/10/15 03:39:49;;;;;;;1.30;0.73;;;;;;;;;;5010536;28;20034;-59
2022/10/15 03:42:15;;;;;;;1.38;0.70;;;;;;;;;;5006470;28;20037;-58
2022/10/15 03:44:40;;;;;;;1.67;0.80;;;;;;;;;;5006400;28;20500;-59
2022/10/15 03:47:06;;;;;;;1.88;0.88;;;;;;;;;;5006979;28;20049;-59
2022/10/15 03:49:32;;;;;;;1.20;0.73;;;;;;;;;;4998996;28;20453;-59
2022/10/15 03:51:57;;;;;;;2.15;0.85;;;;;;;;;;5010593;28;20036;-59
2022/10/15 03:54:23;;;;;;;1.83;0.93;;;;;;;;;;4999345;28;20045;-58
2022/10/15 03:56:48;;;;;;;1.55;0.70;;;;;;;;;;5002909;28;20085;-59
2022/10/15 03:59:13;;;;;;;1.80;0.80;;;;;;;;;;4999821;28;20038;-59
2022/10/15 04:01:39;;;;;;;1.23;0.70;;;;;;;;;;5010374;28;20034;-59
2022/10/15 04:04:04;;;;;;;1.95;0.80;;;;;;;;;;5015199;28;20034;-59
2022/10/15 04:06:33;;;;;;;1.58;0.90;;;;;;;;;;5015854;28;20116;-59
2022/10/15 04:08:58;;;;;;;2.25;0.73;;;;;;;;;;5016093;28;20271;-59
2022/10/15 04:11:23;;;;;;;1.33;0.80;;;;;;;;;;5012188;28;20494;-58
2022/10/15 04:13:49;;;;;;;1.88;0.80;;;;;;;;;;5005778;28;20069;-59
2022/10/15 04:16:15;;;;;;;2.25;0.80;;;;;;;;;;5011888;28;20038;-59
2022/10/15 04:18:40;;;;;;;0.88;0.60;;;;;;;;;;5007292;28;20042;-59
2022/10/15 04:21:06;;;;;;;1.20;0.52;;;;;;;;;;5008537;28;20038;-58
2022/10/15 04:23:31;;;;;;;1.13;0.70;;;;;;;;;;5015748;28;20030;-59
2022/10/15 04:26:00;;;;;;;0.90;0.65;;;;;;;;;;5015913;28;20048;-59
2022/10/15 04:28:26;;;;;;;1.17;0.60;;;;;;;;;;5015652;28;20029;-59
2022/10/15 04:30:59;;;;;;;0.60;0.57;;;;;;;;;;5014268;28;20033;-58
2022/10/15 04:33:25;;;;;;;0.90;0.63;;;;;;;;;;5015865;28;20030;-59
2022/10/15 04:36:01;;;;;;;1.58;0.70;;;;;;;;;;5015463;28;20034;-61
2022/10/15 04:38:27;;;;;;;2.05;0.70;;;;;;;;;;5007798;28;20045;-60
2022/10/15 04:41:06;;;;;;;1.80;0.90;;;;;;;;;;5010032;28;20034;-59
2022/10/15 04:43:32;;;;;;;2.03;0.90;;;;;;;;;;5011718;28;20053;-59
2022/10/15 04:45:58;;;;;;;1.45;0.73;;;;;;;;;;5006781;28;20033;-59
2022/10/15 04:48:24;;;;;;;0.88;0.50;;;;;;;;;;5008974;28;20460;-59
2022/10/15 04:50:50;;;;;;;1.00;0.60;;;;;;;;;;5008715;28;20105;-60
2022/10/15 04:53:16;;;;;;;1.30;0.70;;;;;;;;;;5002173;28;20120;-59
2022/10/15 04:55:42;;;;;;;1.65;0.70;;;;;;;;;;5014755;28;20108;-61
2022/10/15 04:58:07;;;;;;;1.25;0.60;;;;;;;;;;5011954;28;20224;-58
2022/10/15 05:00:32;;;;;;;1.30;0.60;;;;;;;;;;5014753;28;20038;-59
2022/10/15 05:02:58;;;;;;;1.00;0.60;;;;;;;;;;5002265;28;20034;-58
2022/10/15 05:05:23;;;;;;;0.80;0.60;;;;;;;;;;5005210;28;20470;-59
2022/10/15 05:07:49;;;;;;;1.27;0.60;;;;;;;;;;5004457;28;20057;-59
2022/10/15 05:10:14;;;;;;;1.00;0.60;;;;;;;;;;5004475;28;20041;-59
2022/10/15 05:12:39;;;;;;;1.52;0.60;;;;;;;;;;5003588;28;20113;-59
2022/10/15 05:15:05;;;;;;;0.82;0.50;;;;;;;;;;5007838;28;20120;-59
2022/10/15 05:17:31;;;;;;;0.77;0.50;;;;;;;;;;5014590;28;20033;-59
2022/10/15 05:19:56;;;;;;;1.27;0.70;;;;;;;;;;5014437;28;20092;-59
2022/10/15 05:22:21;;;;;;;1.13;0.50;;;;;;;;;;5015019;28;20076;-59
2022/10/15 05:24:47;;;;;;;1.20;0.60;;;;;;;;;;5010674;28;20048;-59
2022/10/15 05:27:12;;;;;;;0.95;0.50;;;;;;;;;;5011285;28;20045;-58
2022/10/15 05:29:38;;;;;;;1.23;0.60;;;;;;;;;;5014356;28;20100;-59
2022/10/15 05:32:04;;;;;;;1.27;0.70;;;;;;;;;;5014452;28;20056;-59
2022/10/15 05:34:30;;;;;;;1.67;0.60;;;;;;;;;;5014660;28;20128;-59
2022/10/15 05:36:55;;;;;;;1.35;0.50;;;;;;;;;;5013753;28;20049;-62
2022/10/15 05:39:20;;;;;;;1.75;0.82;;;;;;;;;;5013094;28;20045;-58
2022/10/15 05:41:46;;;;;;;1.10;0.50;;;;;;;;;;5007176;28;20046;-58
2022/10/15 05:44:11;;;;;;;1.58;0.80;;;;;;;;;;5009058;28;20049;-58
2022/10/15 05:46:37;;;;;;;1.40;0.60;;;;;;;;;;5004888;28;20108;-59
2022/10/15 05:49:02;;;;;;;1.02;0.50;;;;;;;;;;5005319;28;20038;-58
2022/10/15 05:51:28;;;;;;;1.08;0.50;;;;;;;;;;5013335;28;20496;-58
2022/10/15 05:53:54;;;;;;;1.67;0.70;;;;;;;;;;5005045;28;20030;-59
2022/10/15 05:56:20;;;;;;;1.88;0.70;;;;;;;;;;4999933;28;20066;-59
2022/10/15 05:58:45;;;;;;;1.13;0.60;;;;;;;;;;5005805;28;20065;-59
2022/10/15 06:01:12;;;;;;;1.08;0.63;;;;;;;;;;5013312;28;20038;-58
2022/10/15 06:03:38;;;;;;;0.75;0.50;;;;;;;;;;5012208;28;20050;-61
2022/10/15 06:06:04;;;;;;;0.68;0.50;;;;;;;;;;5012525;28;20095;-58
2022/10/15 06:08:30;;;;;;;1.77;0.65;;;;;;;;;;5004864;28;20418;-59
2022/10/15 06:11:01;;;;;;;1.08;0.55;;;;;;;;;;5011346;28;20120;-61
2022/10/15 06:13:27;;;;;;;0.70;0.50;;;;;;;;;;5012951;28;20030;-58
2022/10/15 06:15:52;;;;;;;0.90;0.50;;;;;;;;;;5013199;28;20044;-58
2022/10/15 06:18:17;;;;;;;1.27;0.68;;;;;;;;;;5014077;28;20069;-58
2022/10/15 06:20:43;;;;;;;0.60;0.50;;;;;;;;;;5013387;28;20108;-59
2022/10/15 06:23:09;;;;;;;1.50;0.73;;;;;;;;;;5013285;28;20433;-60
2022/10/15 06:25:34;;;;;;;1.20;0.60;;;;;;;;;;5010422;28;21628;-58
2022/10/15 06:28:02;;;;;;;1.23;0.50;;;;;;;;;;5008219;28;20033;-58
2022/10/15 06:30:27;;;;;;;0.80;0.55;;;;;;;;;;5011179;28;20033;-58
2022/10/15 06:32:53;;;;;;;0.73;0.55;;;;;;;;;;5013055;28;20179;-59
2022/10/15 06:35:20;;;;;;;0.98;0.57;;;;;;;;;;5000162;28;20038;-58
2022/10/15 06:37:46;;;;;;;1.05;0.43;;;;;;;;;;5003007;28;20125;-59
2022/10/15 06:40:12;;;;;;;1.05;0.50;;;;;;;;;;5012649;28;20473;-58
2022/10/15 06:42:37;;;;;;;7.05;0.52;;;;;;;;;;5013499;28;20034;-59
2022/10/15 06:45:04;;;;;;;1.05;0.50;;;;;;;;;;5013211;28;20026;-59
2022/10/15 06:47:29;;;;;;;1.60;0.60;;;;;;;;;;5013529;28;20034;-60
2022/10/15 06:49:54;;;;;;;1.00;0.50;;;;;;;;;;5011152;28;20137;-59
2022/10/15 06:52:20;;;;;;;1.10;0.60;;;;;;;;;;5013697;28;20084;-59
2022/10/15 06:54:45;;;;;;;0.57;0.40;;;;;;;;;;4998717;28;20526;-59
2022/10/15 06:57:11;;;;;;;1.13;0.57;;;;;;;;;;5008314;28;20087;-58
2022/10/15 06:59:37;;;;;;;1.17;0.60;;;;;;;;;;5003036;28;20058;-59
2022/10/15 07:02:02;;;;;;;1.17;0.45;;;;;;;;;;5001704;28;20038;-59
2022/10/15 07:04:28;;;;;;;1.42;0.82;;;;;;;;;;4997428;28;20033;-59
2022/10/15 07:06:53;;;;;;;1.25;0.50;;;;;;;;;;5003602;28;20053;-59
2022/10/15 07:09:19;;;;;;;0.75;0.52;;;;;;;;;;5012664;28;20112;-58
2022/10/15 07:11:45;;;;;;;2.05;0.60;;;;;;;;;;5003994;28;20030;-59
2022/10/15 07:14:10;;;;;;;0.85;0.50;;;;;;;;;;5010921;28;20087;-59
2022/10/15 07:16:37;;;;;;;0.68;0.50;;;;;;;;;;5013299;28;20065;-58
2022/10/15 07:19:03;;;;;;;7.70;0.52;;;;;;;;;;5010977;28;20366;-59
2022/10/15 07:21:29;;;;;;;1.25;0.52;;;;;;;;;;5008347;28;20171;-63
2022/10/15 07:23:54;;;;;;;0.80;0.50;;;;;;;;;;5005370;28;20044;-70
2022/10/15 07:26:19;;;;;;;1.75;0.65;;;;;;;;;;4995776;28;20029;-60
2022/10/15 07:28:45;;;;;;;0.68;0.40;;;;;;;;;;5010562;28;20053;-62
2022/10/15 07:31:10;;;;;;;1.05;0.55;;;;;;;;;;5009896;28;20038;-64
2022/10/15 07:33:36;;;;;;;0.75;0.52;;;;;;;;;;4994540;28;20041;-62
2022/10/15 07:36:04;;;;;;;3.22;0.73;;;;;;;;;;5000270;28;20130;-63
2022/10/15 07:38:29;;;;;;;5.70;0.60;;;;;;;;;;5001124;28;20095;-61
2022/10/15 07:40:59;;;;;;;1.52;0.50;;;;;;;;;;5012627;28;20038;-61
2022/10/15 07:43:25;;;;;;;1.80;0.70;;;;;;;;;;5012582;28;20502;-66
2022/10/15 07:45:50;;;;;;;0.82;0.50;;;;;;;;;;5013021;28;20036;-69
2022/10/15 07:48:16;;;;;;;0.47;0.40;;;;;;;;;;5004582;28;20046;-59
2022/10/15 07:50:41;;;;;;;2.22;0.50;;;;;;;;;;5013809;28;20119;-60
2022/10/15 07:53:07;;;;;;;3.63;0.68;;;;;;;;;;5015146;28;20406;-60
2022/10/15 07:55:33;;;;;;;0.73;0.40;;;;;;;;;;5005927;28;20042;-62
2022/10/15 07:57:58;;;;;;;0.88;0.60;;;;;;;;;;5013783;28;20084;-61
2022/10/15 08:00:24;;;;;;;0.77;0.40;;;;;;;;;;5013509;28;20041;-61
2022/10/15 08:02:49;;;;;;;1.15;0.50;;;;;;;;;;5013550;28;20038;-59
2022/10/15 08:05:15;;;;;;;4.40;0.50;;;;;;;;;;5010872;28;20390;-61
2022/10/15 08:07:40;;;;;;;1.33;0.45;;;;;;;;;;5013777;28;20112;-60
2022/10/15 08:10:07;;;;;;;2.42;0.73;;;;;;;;;;5011837;28;20118;-61
2022/10/15 08:12:33;;;;;;;1.30;0.50;;;;;;;;;;5027192;28;20079;-61
2022/10/15 08:14:58;;;;;;;0.40;0.40;;;;;;;;;;5011137;28;20038;-64
2022/10/15 08:17:24;;;;;;;1.52;0.50;;;;;;;;;;5012772;28;20038;-61
2022/10/15 08:19:49;;;;;;;1.08;0.50;;;;;;;;;;4995214;28;20049;-64
2022/10/15 08:22:14;;;;;;;0.80;0.50;;;;;;;;;;5004284;28;20038;-59
2022/10/15 08:24:40;;;;;;;0.40;0.32;;;;;;;;;;5011274;28;20041;-61
2022/10/15 08:27:05;;;;;;;1.65;0.60;;;;;;;;;;5011864;28;20362;-61
2022/10/15 08:29:30;;;;;;;20.65;1.02;;;;;;;;;;5001983;28;20048;-61
2022/10/15 08:31:56;;;;;;;0.85;0.50;;;;;;;;;;5014951;28;20037;-60
2022/10/15 08:34:21;;;;;;;2.50;0.57;;;;;;;;;;5010335;28;20053;-60
2022/10/15 08:36:47;;;;;;;1.38;0.50;;;;;;;;;;5004287;28;20041;-60
2022/10/15 08:39:12;;;;;;;8.23;1.23;;;;;;;;;;5008617;28;20033;-60
2022/10/15 08:41:55;;;;;;;4.47;0.70;;;;;;;;;;5006004;28;20041;-63
2022/10/15 08:44:25;;;;;;;1.47;0.60;;;;;;;;;;5003464;28;20052;-62
2022/10/15 08:46:58;;;;;;;8.00;0.70;;;;;;;;;;4998563;28;20026;-64
2022/10/15 08:49:42;;;;;;;;;;;;;;;;;;5011375;28;20037;-65
2022/10/15 08:52:37;;;;;;;0.75;0.38;;;;;;;;;;5007743;28;19968;-65
2022/10/15 08:55:03;;;;;;;2.10;0.50;;;;;;;;;;5007713;28;20166;-65
2022/10/15 08:58:02;;;;;;;6.07;1.00;;;;;;;;;;5012324;28;20117;-66
2022/10/15 09:00:50;;;;;;;2.70;0.50;;;;;;;;;;5029660;28;20092;-68
2022/10/15 09:03:39;;;;;;;0.77;0.38;;;;;;;;;;5011968;28;20041;-66
2022/10/15 09:06:23;;;;;;;2.53;0.68;;;;;;;;;;5025136;28;20061;-67
2022/10/15 09:09:07;;;;;;;4.43;0.82;;;;;;;;;;5029985;28;20132;-63
2022/10/15 09:11:43;;;;;;;3.65;0.70;;;;;;;;;;5005837;28;20041;-62
2022/10/15 09:14:14;;;;;;;3.03;0.80;;;;;;;;;;5009855;28;20056;-62
2022/10/15 09:16:40;;;;;;;1.50;0.60;;;;;;;;;;5034953;28;20512;-63
2022/10/15 09:19:29;;;;;;;2.70;0.50;;;;;;;;;;5014446;28;20734;-60
2022/10/15 09:21:55;;;;;;;6.60;0.63;;;;;;;;;;5006920;28;20129;-63
2022/10/15 09:24:23;;;;;;;3.63;0.70;;;;;;;;;;5013805;28;20181;-68
2022/10/15 09:26:53;;;;;;;7.65;0.90;;;;;;;;;;5013659;28;20096;-62
2022/10/15 09:29:34;;;;;;;6.18;0.68;;;;;;;;;;5012003;28;20176;-62
2022/10/15 09:32:12;;;;;;;2.95;0.60;;;;;;;;;;5011454;28;20033;-60
2022/10/15 09:35:16;;;;;;;2.60;0.75;;;;;;;;;;5013306;28;20046;-61
2022/10/15 09:38:19;;;;;;;3.78;0.57;;;;;;;;;;5012828;28;20553;-61
2022/10/15 09:41:15;;;;;;;3.30;0.68;;;;;;;;;;5000890;28;20034;-68
2022/10/15 09:43:44;;;;;;;4.22;0.73;;;;;;;;;;5013921;28;20034;-68
2022/10/15 09:46:09;;;;;;;3.88;0.95;;;;;;;;;;5027176;28;20088;-70
2022/10/15 09:48:40;;;;;;;1.73;0.60;;;;;;;;;;5029041;28;20041;-69
2022/10/15 09:51:24;;;;;;;1.98;0.80;;;;;;;;;;5012159;28;20045;-68
2022/10/15 09:54:06;;;;;;;2.28;0.95;;;;;;;;;;5028327;28;20037;-68
2022/10/15 09:56:36;;;;;;;5.10;0.50;;;;;;;;;;5011160;28;20096;-68
2022/10/15 09:59:01;;;;;;;5.57;1.05;;;;;;;;;;5010858;28;20100;-69
2022/10/15 10:01:29;;;;;;;3.75;0.60;;;;;;;;;;5011146;28;20025;-66
2022/10/15 10:04:19;;;;;;;4.43;0.70;;;;;;;;;;4995252;28;20429;-61
2022/10/15 10:07:02;;;;;;;3.20;0.70;;;;;;;;;;5009747;28;20548;-62
2022/10/15 10:09:32;;;;;;;3.17;0.88;;;;;;;;;;5009833;28;20037;-60
2022/10/15 10:12:17;;;;;;;2.42;0.68;;;;;;;;;;5021943;28;20046;-60
2022/10/15 10:14:57;;;;;;;3.50;0.90;;;;;;;;;;5021824;28;20050;-64
2022/10/15 10:17:25;;;;;;;6.85;1.15;;;;;;;;;;5010548;28;20049;-62
2022/10/15 10:20:09;;;;;;;3.85;1.10;;;;;;;;;;4996463;28;20032;-63
2022/10/15 10:22:51;;;;;;;4.30;0.80;;;;;;;;;;4997305;28;20087;-69
2022/10/15 10:25:26;;;;;;;1.35;0.60;;;;;;;;;;5009995;28;20030;-66
2022/10/15 10:27:56;;;;;;;3.17;1.33;;;;;;;;;;5009873;28;20125;-61
2022/10/15 10:30:22;;;;;;;3.78;0.90;;;;;;;;;;5007052;28;20034;-62
2022/10/15 10:32:48;;;;;;;5.05;0.93;;;;;;;;;;5008853;28;20040;-61
2022/10/15 10:35:24;;;;;;;4.80;0.80;;;;;;;;;;5006476;28;20054;-60
2022/10/15 10:37:51;;;;;;;17.45;1.30;;;;;;;;;;5024316;28;20049;-62
2022/10/15 10:40:32;;;;;;;2.65;0.90;;;;;;;;;;5009979;28;20038;-64
2022/10/15 10:43:18;;;;;;;3.88;0.85;;;;;;;;;;5006583;28;20129;-64
2022/10/15 10:45:57;;;;;;;4.35;1.08;;;;;;;;;;5008125;28;20038;-61
2022/10/15 10:48:44;;;;;;;6.55;1.10;;;;;;;;;;5013122;28;20046;-66
2022/10/15 10:51:12;;;;;;;3.15;0.90;;;;;;;;;;5011627;28;20041;-65
2022/10/15 10:53:57;;;;;;;3.47;0.73;;;;;;;;;;5011631;28;20041;-68
2022/10/15 10:56:29;;;;;;;6.68;1.05;;;;;;;;;;5010625;28;20144;-64
2022/10/15 10:58:58;;;;;;;6.67;0.80;;;;;;;;;;5011145;28;20100;-64
2022/10/15 11:01:23;;;;;;;11.15;1.58;;;;;;;;;;5011335;28;20052;-64
2022/10/15 11:03:50;;;;;;;22.00;2.33;;;;;;;;;;5011983;28;20160;-63
2022/10/15 11:06:36;;;;;;;33.60;2.75;;;;;;;;;;5011333;28;20566;-63
2022/10/15 11:09:20;;;;;;;14.23;1.10;;;;;;;;;;5012222;28;20137;-65
2022/10/15 11:12:01;;;;;;;;;;;;;;;;;;5011320;28;20466;-67
2022/10/15 11:14:46;;;;;;;11.82;1.48;;;;;;;;;;5016955;28;19940;-65
2022/10/15 11:17:15;;;;;;;10.00;1.50;;;;;;;;;;5006321;28;20054;-65
2022/10/15 11:19:47;;;;;;;10.88;1.52;;;;;;;;;;4998595;28;20042;-65
2022/10/15 11:22:30;;;;;;;14.93;1.45;;;;;;;;;;4996508;28;20053;-65
2022/10/15 11:25:13;;;;;;;10.45;1.10;;;;;;;;;;5031844;28;20077;-66
2022/10/15 11:27:51;;;;;;;7.07;1.50;;;;;;;;;;5004529;28;20053;-65
2022/10/15 11:30:29;;;;;;;9.10;1.35;;;;;;;;;;5013527;28;20076;-65
2022/10/15 11:33:19;;;;;;;7.63;1.42;;;;;;;;;;4999691;28;20049;-65
2022/10/15 11:35:54;;;;;;;6.55;0.90;;;;;;;;;;5011419;28;20504;-66
2022/10/15 11:38:37;;;;;;;6.65;1.20;;;;;;;;;;5026458;28;20053;-65
2022/10/15 11:41:18;;;;;;;;;;;;;;;;;;5006886;28;20065;-65
2022/10/15 11:43:49;;;;;;;5.80;1.00;;;;;;;;;;5006272;28;20009;-65
2022/10/15 11:46:27;;;;;;;7.20;0.90;;;;;;;;;;5016510;28;20044;-66
2022/10/15 11:49:03;;;;;;;6.65;0.90;;;;;;;;;;5016370;28;20463;-65
2022/10/15 11:51:55;;;;;;;4.15;0.93;;;;;;;;;;5016736;28;20080;-65
2022/10/15 11:54:46;;;;;;;6.40;0.85;;;;;;;;;;5013830;28;20048;-66
2022/10/15 11:57:15;;;;;;;10.75;1.15;;;;;;;;;;5012060;28;20466;-66
2022/10/15 11:59:48;;;;;;;3.42;0.93;;;;;;;;;;5000668;28;20041;-66
2022/10/15 12:02:19;;;;;;;8.60;1.23;;;;;;;;;;5007173;28;20056;-65
2022/10/15 12:04:54;;;;;;;7.45;2.22;;;;;;;;;;5001540;28;20115;-67
2022/10/15 12:07:23;;;;;;;7.18;1.38;;;;;;;;;;5006386;28;20061;-59
2022/10/15 12:09:53;;;;;;;4.80;0.82;;;;;;;;;;5010511;28;20064;-58
2022/10/15 12:12:37;;;;;;;18.60;1.67;;;;;;;;;;5009942;28;20041;-58
2022/10/15 12:15:13;;;;;;;4.35;1.10;;;;;;;;;;5009871;28;20148;-58
2022/10/15 12:17:50;;;;;;;15.43;1.60;;;;;;;;;;5000981;28;21661;-59
2022/10/15 12:20:18;;;;;;;6.68;1.23;;;;;;;;;;5008219;28;20038;-59
2022/10/15 12:23:06;;;;;;;11.07;1.48;;;;;;;;;;5010694;28;20513;-58
2022/10/15 12:25:35;;;;;;;6.90;1.63;;;;;;;;;;5009441;28;20057;-59
2022/10/15 12:28:11;;;;;;;22.73;2.40;;;;;;;;;;5005124;28;20117;-58
2022/10/15 12:30:37;;;;;;;9.05;1.42;;;;;;;;;;4993485;28;20038;-59
2022/10/15 12:33:18;;;;;;;7.55;1.38;;;;;;;;;;4995443;28;20030;-58
2022/10/15 12:35:53;;;;;;;6.60;1.38;;;;;;;;;;5003644;28;20037;-58
2022/10/15 12:38:39;;;;;;;9.57;1.20;;;;;;;;;;5010764;28;20386;-59
2022/10/15 12:41:09;;;;;;;4.20;1.13;;;;;;;;;;5011080;28;20393;-59
2022/10/15 12:43:49;;;;;;;20.95;1.70;;;;;;;;;;5011382;28;20046;-60
2022/10/15 12:46:15;;;;;;;13.68;1.80;;;;;;;;;;4999075;28;20046;-59
2022/10/15 12:48:43;;;;;;;10.35;1.30;;;;;;;;;;5011104;28;20046;-59
2022/10/15 12:51:20;;;;;;;19.77;1.75;;;;;;;;;;5014064;28;20041;-72
2022/10/15 12:53:57;;;;;;;29.17;2.03;;;;;;;;;;4989986;28;20049;-67
2022/10/15 12:56:24;;;;;;;24.10;2.53;;;;;;;;;;5002834;28;20401;-71
2022/10/15 12:58:54;;;;;;;18.25;1.92;;;;;;;;;;4995987;28;20161;-71
2022/10/15 13:01:19;;;;;;;13.95;2.67;;;;;;;;;;5006044;28;20045;-71
2022/10/15 13:03:48;;;;;;;14.95;1.90;;;;;;;;;;5008264;28;20056;-67
2022/10/15 13:06:19;;;;;;;13.98;2.03;;;;;;;;;;4999933;28;201896;-67
2022/10/15 13:08:46;;;;;;;33.10;3.10;;;;;;;;;;4998544;28;20046;-69
2022/10/15 13:11:19;;;;;;;32.53;5.10;;;;;;;;;;5007058;28;20045;-68
2022/10/15 13:13:45;;;;;;;25.23;2.22;;;;;;;;;;5006523;28;20042;-67
2022/10/15 13:16:11;;;;;;;20.45;2.70;;;;;;;;;;5018535;28;20045;-66
2022/10/15 13:18:38;;;;;;;18.05;2.65;;;;;;;;;;5005232;28;20366;-67
2022/10/15 13:21:03;;;;;;;25.98;4.07;;;;;;;;;;5004415;28;20038;-64
2022/10/15 13:23:32;;;;;;;26.88;2.80;;;;;;;;;;4997835;28;20528;-69
2022/10/15 13:26:21;;;;;;;21.92;2.88;;;;;;;;;;5005264;28;20034;-73
2022/10/15 13:28:48;;;;;;;19.60;2.58;;;;;;;;;;5003390;28;20073;-68
2022/10/15 13:31:31;;;;;;;20.50;2.53;;;;;;;;;;5008589;28;20042;-74
2022/10/15 13:34:10;;;;;;;21.48;2.10;;;;;;;;;;5018928;28;20037;-72
2022/10/15 13:36:35;;;;;;;27.60;2.72;;;;;;;;;;5006663;28;20034;-69
2022/10/15 13:39:22;;;;;;;14.90;2.00;;;;;;;;;;5004338;28;20385;-68
2022/10/15 13:41:48;;;;;;;18.08;1.92;;;;;;;;;;5007821;28;20462;-70
2022/10/15 13:44:21;;;;;;;12.27;1.67;;;;;;;;;;5007610;28;20048;-68
2022/10/15 13:46:46;;;;;;;8.48;1.70;;;;;;;;;;5004828;28;20901;-68
2022/10/15 13:49:12;;;;;;;9.93;1.80;;;;;;;;;;5006725;28;20048;-66
2022/10/15 13:51:48;;;;;;;11.60;1.75;;;;;;;;;;5004162;28;20038;-69
2022/10/15 13:54:18;;;;;;;23.70;2.33;;;;;;;;;;5002614;28;20040;-68
2022/10/15 13:56:51;;;;;;;9.32;1.77;;;;;;;;;;4993942;28;20040;-67
2022/10/15 13:59:18;;;;;;;14.13;1.63;;;;;;;;;;5021497;28;20029;-69
2022/10/15 14:01:47;;;;;;;13.00;1.80;;;;;;;;;;5007255;28;20449;-71
2022/10/15 14:04:18;;;;;;;10.20;1.58;;;;;;;;;;5008899;28;20034;-73
2022/10/15 14:07:01;;;;;;;22.85;1.83;;;;;;;;;;5010357;28;20049;-76
2022/10/15 14:09:37;;;;;;;16.25;2.15;;;;;;;;;;5009575;28;20045;-78
2022/10/15 14:12:07;;;;;;;14.57;1.95;;;;;;;;;;5017844;28;20065;-75
2022/10/15 14:14:45;;;;;;;12.75;1.60;;;;;;;;;;5008894;28;20045;-77
2022/10/15 14:17:24;;;;;;;11.20;1.40;;;;;;;;;;5011307;28;20038;-76
2022/10/15 14:19:55;;;;;;;19.67;1.77;;;;;;;;;;5008264;28;20065;-68
2022/10/15 14:22:22;;;;;;;18.10;2.83;;;;;;;;;;5005562;28;20045;-71
2022/10/15 14:24:50;;;;;;;12.00;1.50;;;;;;;;;;5009052;28;20490;-70
2022/10/15 14:27:27;;;;;;;98.10;6.65;;;;;;;;;;5008861;28;20111;-71
2022/10/15 14:29:53;;;;;;;28.00;2.40;;;;;;;;;;5008480;28;20381;-72
2022/10/15 14:32:26;;;;;;;20.58;1.83;;;;;;;;;;5006550;28;20037;-75
2022/10/15 14:35:03;;;;;;;23.40;2.65;;;;;;;;;;5009417;28;20143;-69
2022/10/15 14:37:34;;;;;;;22.15;2.35;;;;;;;;;;5017996;28;20038;-74
2022/10/15 14:40:11;;;;;;;12.10;2.05;;;;;;;;;;5004051;28;20113;-75
2022/10/15 14:43:01;;;;;;;17.90;2.15;;;;;;;;;;5020912;28;20061;-74
2022/10/15 14:45:31;;;;;;;11.40;1.65;;;;;;;;;;5008769;28;20078;-70
2022/10/15 14:48:08;;;;;;;8.38;1.48;;;;;;;;;;5009617;28;20116;-69
2022/10/15 14:50:37;;;;;;;13.10;2.08;;;;;;;;;;5007846;28;20041;-73
2022/10/15 14:53:08;;;;;;;17.52;1.90;;;;;;;;;;5008218;28;20555;-74
2022/10/15 14:55:37;;;;;;;12.05;1.85;;;;;;;;;;4991862;28;20041;-74
2022/10/15 14:58:16;;;;;;;7.88;1.65;;;;;;;;;;5005260;28;20065;-73
2022/10/15 15:00:46;;;;;;;15.88;1.70;;;;;;;;;;5007738;28;20512;-74